Time;durP1;ratioP1;P1;durP2;ratioP2;P2;SDS_P1;SDS_P2;PMS_P1;PMS_P2;Temp;Humidity;BMP_temperature;BMP_pressure;BME280_temperature;BME280_humidity;BME280_pressure;Samples;Min_cycle;Max_cycle;Signal;HPM_P1;HPM_P2
2022/08/10 00:00:22;;;;;;;;;3.00;3.00;;;;;28.31;31.26;101878.81;5038872;28;45415;-71
2022/08/10 00:02:52;;;;;;;;;3.00;3.00;;;;;28.28;31.31;101883.72;5056366;28;46606;-71
2022/08/10 00:05:19;;;;;;;;;3.33;3.33;;;;;28.18;31.18;101872.84;5056324;28;45502;-72
2022/08/10 00:07:45;;;;;;;;;3.00;3.00;;;;;28.24;31.81;101883.19;5056773;28;45367;-71
2022/08/10 00:10:13;;;;;;;;;5.00;4.00;;;;;28.20;31.64;101884.50;5056781;28;45518;-71
2022/08/10 00:12:39;;;;;;;;;3.00;2.00;;;;;28.19;31.18;101891.03;5055682;28;46998;-71
2022/08/10 00:15:05;;;;;;;;;6.00;4.00;;;;;28.17;31.07;101882.09;5056381;28;45426;-72
2022/08/10 00:17:31;;;;;;;;;4.33;3.33;;;;;28.14;31.52;101876.88;5056491;28;45466;-71
2022/08/10 00:19:56;;;;;;;;;4.67;4.00;;;;;28.12;31.64;101879.81;5056591;28;45451;-71
2022/08/10 00:22:22;;;;;;;;;4.00;4.00;;;;;28.11;31.65;101877.22;5057116;28;47078;-84
2022/08/10 00:24:47;;;;;;;;;3.00;3.00;;;;;28.07;31.79;101875.78;5056521;28;45437;-84
2022/08/10 00:27:12;;;;;;;;;3.00;3.00;;;;;28.06;31.51;101883.16;5042493;28;46020;-83
2022/08/10 00:29:38;;;;;;;;;2.33;2.33;;;;;28.05;31.91;101884.19;5077499;28;45420;-83
2022/08/10 00:32:03;;;;;;;;;4.00;2.33;;;;;27.94;31.67;101868.81;5077254;28;45952;-83
2022/08/10 00:34:31;;;;;;;;;4.00;2.33;;;;;28.01;31.70;101882.75;5076749;28;45390;-83
2022/08/10 00:36:57;;;;;;;;;4.00;2.33;;;;;27.99;31.41;101882.03;5077280;28;45445;-83
2022/08/10 00:39:23;;;;;;;;;3.67;3.67;;;;;27.94;31.44;101879.75;5075588;28;45529;-83
2022/08/10 00:41:48;;;;;;;;;3.00;3.00;;;;;27.93;31.65;101879.91;5076259;28;45460;-83
2022/08/10 00:44:13;;;;;;;;;4.33;4.00;;;;;27.90;31.92;101874.75;5061697;28;45655;-84
2022/08/10 00:46:39;;;;;;;;;3.00;3.00;;;;;27.87;32.16;101875.06;5056223;28;45790;-83
2022/08/10 00:49:04;;;;;;;;;3.67;3.67;;;;;27.78;31.99;101872.16;5056488;28;45488;-83
2022/08/10 00:51:30;;;;;;;;;2.00;2.00;;;;;27.73;31.88;101860.81;5038667;28;47453;-84
2022/08/10 00:53:55;;;;;;;;;3.00;3.00;;;;;27.79;32.18;101870.28;5056174;28;45455;-84
2022/08/10 00:56:21;;;;;;;;;6.00;3.00;;;;;27.74;32.05;101869.88;5037905;28;45672;-84
2022/08/10 00:58:47;;;;;;;;;2.00;2.00;;;;;27.76;32.00;101878.81;5056312;28;45720;-84
2022/08/10 01:01:12;;;;;;;;;3.33;3.33;;;;;27.74;31.83;101873.47;5057520;28;46383;-83
2022/08/10 01:03:38;;;;;;;;;4.00;4.00;;;;;27.72;31.76;101874.66;5059566;28;45331;-83
2022/08/10 01:06:23;;;;;;;;;3.00;3.00;;;;;27.69;32.08;101870.34;5059608;28;45446;-83
2022/08/10 01:09:01;;;;;;;;;3.33;3.33;;;;;27.68;32.33;101868.63;5059905;28;45465;-83
2022/08/10 01:11:48;;;;;;;;;2.33;2.33;;;;;27.61;32.15;101864.78;5059555;28;47122;-84
2022/08/10 01:14:49;;;;;;;;;2.67;2.33;;;;;27.61;32.22;101864.78;5059110;28;45524;-84
2022/08/10 01:17:42;;;;;;;;;3.33;3.33;;;;;27.58;31.92;101859.56;5060382;28;45388;-83
2022/08/10 01:20:37;;;;;;;;;3.67;3.00;;;;;27.55;32.28;101859.88;5059965;28;45493;-84
2022/08/10 01:23:14;;;;;;;;;3.33;2.33;;;;;27.52;32.39;101863.78;5059065;28;47113;-83
2022/08/10 01:25:50;;;;;;;;;3.00;3.00;;;;;27.50;32.46;101857.59;5059045;28;45514;-84
2022/08/10 01:28:37;;;;;;;;;4.00;4.00;;;;;27.48;32.74;101861.50;5072084;28;45492;-83
2022/08/10 01:31:03;;;;;;;;;4.67;3.67;;;;;27.46;32.82;101861.66;5079860;28;45442;-83
2022/08/10 01:33:34;;;;;;;;;4.00;2.00;;;;;27.42;32.56;101862.09;5078945;28;45454;-84
2022/08/10 01:36:10;;;;;;;;;2.67;2.67;;;;;27.39;32.96;101862.41;5079217;28;45816;-84
2022/08/10 01:38:46;;;;;;;;;4.33;3.33;;;;;27.34;32.80;101869.19;5079319;28;45459;-83
2022/08/10 01:41:20;;;;;;;;;4.33;4.00;;;;;27.31;32.15;101864.03;5079025;28;45523;-83
2022/08/10 01:43:52;;;;;;;;;5.00;5.00;;;;;27.28;32.70;101856.13;5067796;28;47150;-83
2022/08/10 01:46:22;;;;;;;;;4.00;4.00;;;;;27.30;32.59;101845.00;5040545;28;45517;-84
2022/08/10 01:48:52;;;;;;;;;3.33;3.33;;;;;27.28;32.56;101855.25;5059070;28;45464;-84
2022/08/10 01:51:37;;;;;;;;;2.00;2.00;;;;;27.26;33.12;101851.81;5058640;28;45562;-83
2022/08/10 01:54:10;;;;;;;;;3.67;3.67;;;;;27.22;33.03;101848.50;5040390;28;48655;-84
2022/08/10 01:56:39;;;;;;;;;5.00;3.67;;;;;27.22;33.11;101861.31;5059893;28;45429;-83
2022/08/10 01:59:37;;;;;;;;;4.00;4.00;;;;;27.16;32.91;101854.53;5060710;28;45383;-83
2022/08/10 02:02:08;;;;;;;;;4.33;4.33;;;;;27.14;32.65;101849.22;5059220;28;45564;-84
2022/08/10 02:04:36;;;;;;;;;3.00;3.00;;;;;27.13;32.81;101842.00;5059203;28;45441;-83
2022/08/10 02:07:03;;;;;;;;;4.00;3.00;;;;;27.15;33.10;101842.72;5058570;28;45464;-83
2022/08/10 02:09:33;;;;;;;;;5.00;4.00;;;;;27.13;32.92;101850.19;5058192;28;45438;-83
2022/08/10 02:12:04;;;;;;;;;5.00;4.00;;;;;27.13;32.70;101842.00;5059176;28;45501;-83
2022/08/10 02:14:43;;;;;;;;;4.67;4.00;;;;;27.11;33.16;101844.03;5058787;28;46222;-84
2022/08/10 02:17:12;;;;;;;;;3.00;3.00;;;;;27.04;33.37;101831.97;5058278;28;45404;-83
2022/08/10 02:19:41;;;;;;;;;4.00;3.00;;;;;27.02;33.19;101838.56;5058636;28;45391;-83
2022/08/10 02:22:08;;;;;;;;;4.00;3.33;;;;;27.09;33.46;101845.16;5058449;28;45477;-83
2022/08/10 02:24:35;;;;;;;;;3.00;3.00;;;;;27.05;33.29;101843.78;5039877;28;46105;-83
2022/08/10 02:27:04;;;;;;;;;4.00;3.00;;;;;27.04;32.87;101850.22;5060316;28;45332;-83
2022/08/10 02:29:30;;;;;;;;;5.00;3.00;;;;;27.03;33.71;101854.00;5078457;28;45393;-83
2022/08/10 02:31:56;;;;;;;;;4.00;4.00;;;;;27.01;32.95;101858.75;5077542;28;45704;-83
2022/08/10 02:34:24;;;;;;;;;6.00;5.00;;;;;26.92;33.44;101844.91;5078347;28;46049;-83
2022/08/10 02:36:52;;;;;;;;;3.33;3.00;;;;;26.95;33.42;101852.84;5078341;28;45347;-83
2022/08/10 02:39:22;;;;;;;;;4.33;4.33;;;;;26.94;33.52;101853.84;5078023;28;45751;-83
2022/08/10 02:42:11;;;;;;;;;3.33;2.00;;;;;26.92;33.42;101855.00;5078317;28;45499;-83
2022/08/10 02:45:00;;;;;;;;;4.00;4.00;;;;;26.89;33.54;101847.09;5059551;28;47152;-83
2022/08/10 02:47:31;;;;;;;;;3.67;3.67;;;;;26.86;33.41;101856.47;5057917;28;45446;-83
2022/08/10 02:50:12;;;;;;;;;3.00;3.00;;;;;26.84;33.70;101857.63;5058019;28;45442;-83
2022/08/10 02:52:43;;;;;;;;;3.67;3.67;;;;;26.77;33.90;101856.50;5057716;28;45513;-83
2022/08/10 02:55:34;;;;;;;;;4.00;4.00;;;;;26.72;34.20;101865.13;5057681;28;46153;-83
2022/08/10 02:58:07;;;;;;;;;3.67;3.67;;;;;26.73;34.34;101858.66;5057526;28;45454;-83
2022/08/10 03:00:37;;;;;;;;;4.00;4.00;;;;;26.45;34.03;101822.06;5057674;28;45604;-83
2022/08/10 03:03:04;;;;;;;;;3.67;3.67;;;;;26.65;34.01;101862.13;5057921;28;45449;-83
2022/08/10 03:05:30;;;;;;;;;5.00;4.00;;;;;26.60;34.07;101861.69;5057406;28;46441;-83
2022/08/10 03:08:05;;;;;;;;;5.00;5.00;;;;;26.49;34.62;101853.59;5057238;28;45451;-83
2022/08/10 03:10:35;;;;;;;;;3.00;3.00;;;;;26.55;34.21;101871.31;5057430;28;45501;-83
2022/08/10 03:13:09;;;;;;;;;5.00;4.00;;;;;26.50;34.80;101863.50;5057646;28;45466;-83
2022/08/10 03:15:37;;;;;;;;;5.00;5.00;;;;;26.44;34.73;101855.91;5039092;28;45702;-83
2022/08/10 03:18:04;;;;;;;;;6.00;4.00;;;;;26.48;34.39;101860.94;5057263;28;45376;-83
2022/08/10 03:20:34;;;;;;;;;6.67;5.67;;;;;26.41;34.31;101847.97;5057335;28;45373;-83
2022/08/10 03:23:01;;;;;;;;;3.33;3.33;;;;;26.41;35.00;101857.06;5039029;28;45561;-83
2022/08/10 03:25:28;;;;;;;;;4.00;3.00;;;;;26.43;34.88;101859.63;5039182;28;46656;-83
2022/08/10 03:27:55;;;;;;;;;3.00;3.00;;;;;26.39;34.37;101852.75;5066391;28;45387;-83
2022/08/10 03:30:21;;;;;;;;;3.67;3.00;;;;;26.33;34.70;101841.34;5076163;28;45542;-83
2022/08/10 03:32:49;;;;;;;;;3.33;3.33;;;;;26.35;35.01;101843.09;5059488;28;45438;-83
2022/08/10 03:35:15;;;;;;;;;3.67;2.67;;;;;26.30;35.27;101843.53;5077170;28;47587;-83
2022/08/10 03:37:41;;;;;;;;;4.00;4.00;;;;;26.19;35.44;101833.56;5077086;28;45462;-83
2022/08/10 03:40:07;;;;;;;;;2.00;2.00;;;;;26.25;35.28;101851.28;5077017;28;45415;-83
2022/08/10 03:42:36;;;;;;;;;3.67;3.67;;;;;26.20;35.13;101853.56;5076315;28;45533;-83
2022/08/10 03:45:03;;;;;;;;;3.00;3.00;;;;;26.18;34.68;101850.13;5056940;28;46653;-83
2022/08/10 03:47:30;;;;;;;;;3.00;3.00;;;;;26.18;34.87;101859.19;5056758;28;45391;-83
2022/08/10 03:49:56;;;;;;;;;3.00;3.00;;;;;26.08;35.03;101848.25;5056845;28;45458;-83
2022/08/10 03:52:23;;;;;;;;;3.00;3.00;;;;;26.13;35.18;101857.88;5057047;28;45622;-83
2022/08/10 03:54:51;;;;;;;;;4.33;3.67;;;;;26.10;35.06;101851.69;5056649;28;46324;-83
2022/08/10 03:57:17;;;;;;;;;3.00;3.00;;;;;26.05;35.43;101853.97;5056630;28;45483;-83
2022/08/10 03:59:43;;;;;;;;;3.00;3.00;;;;;26.05;35.26;101858.59;5056510;28;45430;-83
2022/08/10 04:02:09;;;;;;;;;3.00;3.00;;;;;26.02;35.83;101854.28;5057252;28;45689;-83
2022/08/10 04:04:35;;;;;;;;;4.00;4.00;;;;;25.89;35.75;101840.00;5056166;28;46026;-83
2022/08/10 04:07:02;;;;;;;;;2.33;2.00;;;;;25.94;35.80;101859.56;5056765;28;45383;-83
2022/08/10 04:09:31;;;;;;;;;5.33;5.33;;;;;25.90;36.22;101850.78;5056649;28;45406;-83
2022/08/10 04:11:56;;;;;;;;;3.67;3.33;;;;;25.89;36.15;101856.38;5056873;28;45399;-83
2022/08/10 04:14:22;;;;;;;;;6.00;4.33;;;;;25.85;36.32;101861.25;5056354;28;46033;-83
2022/08/10 04:16:47;;;;;;;;;4.00;4.00;;;;;25.81;35.87;101858.94;5056416;28;45514;-83
2022/08/10 04:19:16;;;;;;;;;4.00;4.00;;;;;25.74;36.06;101841.38;5056341;28;45478;-83
2022/08/10 04:21:46;;;;;;;;;7.00;4.33;;;;;25.74;36.06;101853.16;5057236;28;45458;-83
2022/08/10 04:24:19;;;;;;;;;4.00;4.00;;;;;25.67;36.02;101850.13;5056274;28;45430;-83
2022/08/10 04:26:45;;;;;;;;;4.00;4.00;;;;;25.52;36.79;101835.13;5037821;28;45412;-83
2022/08/10 04:29:11;;;;;;;;;3.67;3.67;;;;;25.66;36.31;101855.72;5058599;28;45475;-83
2022/08/10 04:31:38;;;;;;;;;4.67;4.67;;;;;25.55;36.44;101847.66;5077093;28;45496;-83
2022/08/10 04:34:05;;;;;;;;;7.00;5.00;;;;;25.60;36.48;101859.00;5076421;28;46286;-83
2022/08/10 04:36:32;;;;;;;;;3.67;3.67;;;;;25.58;36.34;101861.00;5061385;28;45513;-83
2022/08/10 04:38:58;;;;;;;;;4.00;4.00;;;;;25.55;36.96;101862.16;5081474;28;45446;-83
2022/08/10 04:41:24;;;;;;;;;5.33;5.33;;;;;25.53;36.88;101861.44;5081540;28;45504;-83
2022/08/10 04:43:49;;;;;;;;;5.00;4.00;;;;;25.52;37.37;101861.56;5068394;28;47142;-83
2022/08/10 04:46:15;;;;;;;;;4.33;4.33;;;;;25.49;37.09;101869.00;5059558;28;45395;-83
2022/08/10 04:48:40;;;;;;;;;6.00;5.00;;;;;25.47;36.87;101862.84;5059604;28;45453;-83
2022/08/10 04:51:06;;;;;;;;;4.00;4.00;;;;;25.46;36.93;101871.16;5059929;28;45430;-83
2022/08/10 04:53:32;;;;;;;;;6.33;5.00;;;;;25.43;37.44;101869.56;5059664;28;46170;-83
2022/08/10 04:55:57;;;;;;;;;8.33;6.00;;;;;25.43;37.70;101871.44;5059533;28;45504;-83
2022/08/10 04:58:22;;;;;;;;;4.00;4.00;;;;;25.42;37.92;101865.09;5059723;28;45685;-83
2022/08/10 05:00:48;;;;;;;;;2.00;2.00;;;;;25.43;37.46;101874.19;5059704;28;45477;-83
2022/08/10 05:03:13;;;;;;;;;6.00;4.00;;;;;25.41;37.76;101879.75;5058910;28;46287;-83
2022/08/10 05:05:38;;;;;;;;;4.67;4.67;;;;;25.40;37.92;101885.34;5059435;28;45418;-83
2022/08/10 05:08:04;;;;;;;;;5.00;3.00;;;;;25.39;37.95;101878.16;5059359;28;45479;-83
2022/08/10 05:10:29;;;;;;;;;4.00;4.00;;;;;25.38;37.77;101881.88;5059826;28;45429;-83
2022/08/10 05:12:55;;;;;;;;;3.00;3.00;;;;;25.36;38.41;101884.78;5041245;28;47367;-83
2022/08/10 05:15:23;;;;;;;;;3.00;3.00;;;;;25.34;38.42;101885.91;5059099;28;45450;-83
2022/08/10 05:17:48;;;;;;;;;4.00;3.00;;;;;25.34;37.96;101878.59;5059306;28;45364;-83
2022/08/10 05:20:14;;;;;;;;;4.00;2.67;;;;;25.32;38.37;101877.00;5059652;28;45570;-72
2022/08/10 05:22:41;;;;;;;;;4.33;4.33;;;;;25.32;38.17;101882.44;5058756;28;47592;-71
2022/08/10 05:25:18;;;;;;;;;5.00;5.00;;;;;25.32;38.47;101883.31;5058858;28;45492;-71
2022/08/10 05:27:45;;;;;;;;;4.33;3.67;;;;;25.33;37.89;101886.91;5067095;28;45640;-71
2022/08/10 05:30:17;;;;;;;;;4.67;4.67;;;;;25.34;37.84;101885.91;5079610;28;45572;-71
2022/08/10 05:32:42;;;;;;;;;5.33;4.00;;;;;25.31;38.45;101883.44;5078765;28;47065;-71
2022/08/10 05:35:08;;;;;;;;;6.00;3.67;;;;;25.36;38.79;101897.56;5079387;28;45393;-71
2022/08/10 05:37:34;;;;;;;;;4.00;4.00;;;;;25.26;38.58;101882.00;5079149;28;45466;-71
2022/08/10 05:40:02;;;;;;;;;4.33;4.33;;;;;25.25;38.57;101877.53;5079273;28;45462;-71
2022/08/10 05:42:28;;;;;;;;;4.00;3.00;;;;;25.37;38.50;101888.34;5078505;28;46462;-71
2022/08/10 05:44:54;;;;;;;;;3.00;3.00;;;;;25.38;38.25;101890.06;5058766;28;45512;-71
2022/08/10 05:47:20;;;;;;;;;3.00;3.00;;;;;25.38;38.55;101890.97;5058174;28;45485;-71
2022/08/10 05:49:49;;;;;;;;;3.00;3.00;;;;;25.39;38.22;101887.22;5058977;28;45468;-71
2022/08/10 05:52:16;;;;;;;;;4.00;4.00;;;;;25.39;38.66;101889.94;5058584;28;46169;-71
2022/08/10 05:54:42;;;;;;;;;3.67;3.67;;;;;25.39;38.34;101889.94;5058671;28;45592;-71
2022/08/10 05:57:09;;;;;;;;;4.00;4.00;;;;;25.41;38.80;101895.28;5058512;28;45454;-71
2022/08/10 05:59:38;;;;;;;;;4.67;4.67;;;;;25.44;38.48;101895.00;5058714;28;45444;-71
2022/08/10 06:02:06;;;;;;;;;3.67;3.67;;;;;25.45;38.52;101894.88;5058120;28;46998;-71
2022/08/10 06:04:39;;;;;;;;;5.67;5.33;;;;;25.45;38.66;101900.34;5058237;28;45730;-71
2022/08/10 06:07:06;;;;;;;;;5.00;4.00;;;;;25.46;38.73;101893.00;5058342;28;45352;-71
2022/08/10 06:09:34;;;;;;;;;2.33;2.33;;;;;25.48;39.19;101889.13;5058637;28;45543;-71
2022/08/10 06:12:02;;;;;;;;;5.00;5.00;;;;;25.51;38.30;101887.13;5058039;28;47109;-71
2022/08/10 06:17:15;;;;;;;;;6.67;6.67;;;;;25.49;38.45;101882.66;5058058;28;45327;-71
2022/08/10 06:19:42;;;;;;;;;4.00;4.00;;;;;25.59;38.95;101895.50;5040463;28;45479;-71
2022/08/10 06:22:09;;;;;;;;;6.00;4.67;;;;;25.56;38.60;101882.13;5057922;28;45485;-71
2022/08/10 06:24:39;;;;;;;;;3.00;3.00;;;;;25.64;37.89;101898.69;5057860;28;45500;-71
2022/08/10 06:27:05;;;;;;;;;5.00;5.00;;;;;25.56;39.07;101877.53;5060916;28;45545;-71
2022/08/10 06:29:34;;;;;;;;;4.33;4.00;;;;;25.70;38.55;101896.25;5078556;28;45539;-71
2022/08/10 06:32:02;;;;;;;;;5.00;5.00;;;;;25.73;38.41;101902.44;5077917;28;46198;-71
2022/08/10 06:34:32;;;;;;;;;4.00;4.00;;;;;25.77;38.66;101903.91;5078238;28;45438;-71
2022/08/10 06:37:01;;;;;;;;;3.67;3.67;;;;;25.78;37.85;101900.16;5078477;28;45445;-71
2022/08/10 06:39:27;;;;;;;;;5.67;5.00;;;;;25.83;37.54;101901.50;5078081;28;45631;-71
2022/08/10 06:42:00;;;;;;;;;4.00;4.00;;;;;25.85;37.64;101895.91;5077978;28;45542;-71
2022/08/10 06:44:31;;;;;;;;;6.00;6.00;;;;;25.92;36.62;101897.09;5060940;28;45510;-71
2022/08/10 06:46:58;;;;;;;;;6.00;6.00;;;;;26.00;36.75;101904.59;5057892;28;45443;-71
2022/08/10 06:49:24;;;;;;;;;4.67;4.67;;;;;26.04;36.48;101897.84;5040164;28;45657;-71
2022/08/10 06:51:54;;;;;;;;;5.00;5.00;;;;;25.99;36.19;101884.63;5057310;28;46679;-71
2022/08/10 06:54:26;;;;;;;;;9.67;6.00;;;;;26.16;36.59;101904.94;5057710;28;45390;-71
2022/08/10 06:56:55;;;;;;;;;4.67;4.00;;;;;26.17;36.05;101903.06;5057805;28;45441;-71
2022/08/10 06:59:37;;;;;;;;;5.67;5.67;;;;;26.25;36.06;101903.22;5056844;28;45391;-71
2022/08/10 07:02:14;;;;;;;;;7.00;7.00;;;;;26.31;35.71;101911.69;5057157;28;47162;-71
2022/08/10 07:04:50;;;;;;;;;6.00;6.00;;;;;26.30;36.04;101918.19;5057574;28;45735;-71
2022/08/10 07:07:23;;;;;;;;;5.00;4.33;;;;;26.31;36.16;101903.50;5057269;28;45360;-71
2022/08/10 07:09:50;;;;;;;;;5.33;5.33;;;;;26.40;35.45;101911.88;5057694;28;45442;-71
2022/08/10 07:12:19;;;;;;;;;6.33;5.00;;;;;26.43;35.72;101908.84;5057166;28;47586;-71
2022/08/10 07:14:46;;;;;;;;;6.00;6.00;;;;;26.49;35.50;101908.28;5057002;28;45481;-71
2022/08/10 07:17:15;;;;;;;;;5.67;5.67;;;;;26.56;35.96;101908.63;5057377;28;45454;-71
2022/08/10 07:19:42;;;;;;;;;9.67;6.67;;;;;26.57;35.85;101908.44;5057673;28;45536;-72
2022/08/10 07:22:09;;;;;;;;;4.00;4.00;;;;;26.60;35.85;101905.44;5057120;28;47434;-72
2022/08/10 07:24:37;;;;;;;;;5.00;4.00;;;;;26.66;35.72;101909.47;5057060;28;45560;-72
2022/08/10 07:27:05;;;;;;;;;6.00;5.00;;;;;26.70;35.52;101909.03;5059522;28;45479;-71
2022/08/10 07:29:31;;;;;;;;;6.00;6.00;;;;;26.77;35.40;101908.47;5077479;28;45414;-72
2022/08/10 07:31:59;;;;;;;;;5.00;5.00;;;;;26.73;35.59;101906.00;5077183;28;46817;-71
2022/08/10 07:34:26;;;;;;;;;5.00;3.67;;;;;26.84;35.41;101901.41;5077061;28;45403;-71
2022/08/10 07:36:52;;;;;;;;;8.00;6.33;;;;;26.92;35.61;101898.78;5075934;28;45496;-72
2022/08/10 07:39:27;;;;;;;;;6.00;6.00;;;;;26.99;34.98;101899.94;5077327;28;45461;-71
2022/08/10 07:41:55;;;;;;;;;8.00;6.00;;;;;26.97;35.43;101887.41;5076979;28;46211;-72
2022/08/10 07:44:26;;;;;;;;;4.33;4.33;;;;;27.09;35.00;101909.00;5058713;28;45460;-71
2022/08/10 07:46:55;;;;;;;;;7.33;6.00;;;;;27.16;34.91;101906.56;5077211;28;45437;-71
2022/08/10 07:49:25;;;;;;;;;6.33;6.33;;;;;27.20;35.19;101898.91;5077488;28;45562;-71
2022/08/10 07:51:52;;;;;;;;;7.00;5.67;;;;;27.28;35.02;101899.91;5058573;28;48329;-71
2022/08/10 07:54:21;;;;;;;;;7.33;6.33;;;;;27.32;34.55;101898.63;5076863;28;45551;-72
2022/08/10 07:56:50;;;;;;;;;6.00;5.00;;;;;27.37;35.04;101909.13;5076834;28;45405;-71
2022/08/10 07:59:21;;;;;;;;;4.00;4.00;;;;;27.43;35.04;101905.78;5077120;28;45456;-71
2022/08/10 08:01:50;;;;;;;;;7.00;4.00;;;;;27.48;34.99;101911.66;5076606;28;46138;-72
2022/08/10 08:04:19;;;;;;;;;6.33;6.00;;;;;27.52;34.21;101915.84;5076948;28;45811;-71
2022/08/10 08:06:47;;;;;;;;;9.67;5.00;;;;;27.57;34.94;101918.97;5076808;28;45507;-71
2022/08/10 08:09:12;;;;;;;;;10.33;7.67;;;;;27.64;34.64;101912.91;5076820;28;45406;-71
2022/08/10 08:11:43;;;;;;;;;5.67;5.67;;;;;27.69;34.30;101908.69;5076442;28;47088;-71
2022/08/10 08:14:10;;;;;;;;;5.33;5.33;;;;;27.75;34.40;101907.25;5076568;28;45445;-71
2022/08/10 08:16:37;;;;;;;;;6.00;6.00;;;;;27.81;33.95;101912.09;5076410;28;45605;-71
2022/08/10 08:19:03;;;;;;;;;5.00;5.00;;;;;27.85;33.42;101904.50;5076745;28;45538;-71
2022/08/10 08:21:29;;;;;;;;;5.33;5.33;;;;;27.89;33.28;101904.03;5075094;28;46277;-71
2022/08/10 08:23:55;;;;;;;;;6.00;5.00;;;;;27.82;33.17;101877.38;5076316;28;45482;-71
2022/08/10 08:26:23;;;;;;;;;5.33;5.33;;;;;28.04;33.20;101895.28;5076134;28;45475;-71
2022/08/10 08:28:50;;;;;;;;;5.67;4.67;;;;;28.10;33.40;101887.31;5076364;28;45543;-71
2022/08/10 08:31:18;;;;;;;;;3.67;3.33;;;;;28.14;33.38;101880.53;5076238;28;46413;-71
2022/08/10 08:33:45;;;;;;;;;4.00;4.00;;;;;28.16;33.05;101875.72;5076315;28;45372;-72
2022/08/10 08:36:14;;;;;;;;;8.33;6.33;;;;;28.30;33.20;101887.19;5076702;28;45713;-72
2022/08/10 08:38:41;;;;;;;;;8.00;5.00;;;;;28.38;33.07;101885.38;5076772;28;45512;-72
2022/08/10 08:41:17;;;;;;;;;6.33;6.33;;;;;28.50;32.80;101885.19;5075672;28;46379;-72
2022/08/10 08:44:02;;;;;;;;;6.00;6.00;;;;;28.78;32.42;101885.97;5065354;28;45502;-72
2022/08/10 08:46:54;;;;;;;;;3.33;3.00;;;;;28.89;32.27;101884.81;5056093;28;45368;-71
2022/08/10 08:49:41;;;;;;;;;7.00;5.33;;;;;29.07;32.28;101884.78;4993971;28;45455;-72
2022/08/10 08:52:23;;;;;;;;;8.33;7.00;;;;;29.92;31.21;101890.47;4993463;28;46415;-72
2022/08/10 08:55:17;;;;;;;;;5.67;5.67;;;;;34.06;25.85;101877.75;4993548;28;45458;-72
2022/08/10 08:58:03;;;;;;;;;6.00;6.00;;;;;38.19;21.47;101867.22;4993721;28;45611;-72
2022/08/10 09:00:55;;;;;;;;;5.00;5.00;;;;;41.02;18.27;101867.09;4993806;28;45673;-72
2022/08/10 09:03:29;;;;;;;;;6.67;6.67;;;;;42.74;16.43;101867.25;4993299;28;47430;-72
2022/08/10 09:06:19;;;;;;;;;6.00;6.00;;;;;44.16;15.15;101869.53;4993520;28;45575;-72
2022/08/10 09:08:50;;;;;;;;;5.00;5.00;;;;;45.39;14.68;101875.28;4993592;28;45530;-72
2022/08/10 09:11:33;;;;;;;;;4.67;4.67;;;;;46.43;13.28;101869.72;4993569;28;45412;-72
2022/08/10 09:14:15;;;;;;;;;5.67;5.00;;;;;47.43;12.82;101879.47;4993310;28;47532;-72
2022/08/10 09:16:50;;;;;;;;;7.00;4.67;;;;;48.10;12.29;101866.72;4992922;28;45440;-72
2022/08/10 09:19:51;;;;;;;;;7.00;5.67;;;;;48.78;12.18;101877.22;4993346;28;45580;-72
2022/08/10 09:22:36;;;;;;;;;4.33;3.33;;;;;49.39;11.95;101867.22;4995098;28;45514;-72
2022/08/10 09:25:08;;;;;;;;;5.67;4.00;;;;;49.89;11.38;101872.50;4981669;28;47808;-72
2022/08/10 09:27:42;;;;;;;;;3.33;3.00;;;;;50.34;10.57;101874.94;5065549;28;48073;-72
2022/08/10 09:30:10;;;;;;;;;6.33;6.33;;;;;50.68;10.61;101864.16;5079233;28;45580;-72
2022/08/10 09:32:40;;;;;;;;;6.33;5.33;;;;;50.91;10.16;101871.97;5079630;28;45491;-72
2022/08/10 09:35:35;;;;;;;;;7.67;7.67;;;;;51.17;10.67;101866.69;5078861;28;46316;-70
2022/08/10 09:38:32;;;;;;;;;6.33;6.33;;;;;51.44;10.34;101868.66;5078883;28;45334;-69
2022/08/10 09:41:05;;;;;;;;;5.00;5.00;;;;;51.59;9.68;101864.66;5079035;28;45540;-70
2022/08/10 09:43:39;;;;;;;;;5.00;5.00;;;;;51.69;9.92;101855.88;5070268;28;45528;-70
2022/08/10 09:46:33;;;;;;;;;5.00;5.00;;;;;51.75;9.83;101868.00;5058567;28;46013;-70
2022/08/10 09:49:16;;;;;;;;;5.00;5.00;;;;;51.95;9.91;101864.69;5058688;28;45462;-70
2022/08/10 09:51:59;;;;;;;;;4.33;4.00;;;;;52.11;9.82;101860.31;5058630;28;45443;-70
2022/08/10 09:54:34;;;;;;;;;5.00;3.33;;;;;52.25;9.62;101862.28;5058292;28;45795;-70
2022/08/10 09:57:12;;;;;;;;;5.00;5.00;;;;;52.34;9.65;101854.63;5058545;28;46801;-70
2022/08/10 10:00:07;;;;;;;;;5.00;5.00;;;;;52.59;9.11;101855.13;5040062;28;46140;-70
2022/08/10 10:02:49;;;;;;;;;7.00;7.00;;;;;52.81;9.41;101843.72;5058538;28;45517;-70
2022/08/10 10:05:29;;;;;;;;;5.00;5.00;;;;;52.96;9.34;101846.09;5058536;28;45724;-70
2022/08/10 10:08:06;;;;;;;;;4.67;4.00;;;;;53.20;8.92;101842.03;5057784;28;46288;-70
2022/08/10 10:10:44;;;;;;;;;4.33;4.33;;;;;53.43;9.06;101841.94;5058129;28;45406;-70
2022/08/10 10:13:23;;;;;;;;;6.67;6.67;;;;;53.71;8.87;101836.78;5058276;28;45422;-70
2022/08/10 10:16:05;;;;;;;;;5.67;4.33;;;;;53.97;8.80;101833.94;5040460;28;45465;-70
2022/08/10 10:18:43;;;;;;;;;6.33;5.33;;;;;54.27;8.29;101831.25;5057855;28;45547;-70
2022/08/10 10:21:33;;;;;;;;;4.00;4.00;;;;;54.47;7.72;101830.56;5056675;28;45486;-70
2022/08/10 10:24:23;;;;;;;;;4.67;4.67;;;;;54.65;7.94;101828.44;5058370;28;45571;-70
2022/08/10 10:26:58;;;;;;;;;4.33;4.33;;;;;54.81;8.02;101826.72;5058984;28;45414;-70
2022/08/10 10:29:53;;;;;;;;;5.33;5.00;;;;;54.89;7.39;101827.88;5077833;28;47125;-70
2022/08/10 10:32:28;;;;;;;;;6.00;4.67;;;;;54.95;7.84;101826.50;5077653;28;45406;-70
2022/08/10 10:35:21;;;;;;;;;6.00;5.00;;;;;55.00;7.68;101816.88;5077611;28;45473;-70
2022/08/10 10:37:50;;;;;;;;;6.00;6.00;;;;;55.03;7.22;101810.50;5078121;28;45555;-70
2022/08/10 10:40:18;;;;;;;;;4.00;4.00;;;;;54.98;7.49;101805.81;5077875;28;46642;-70
2022/08/10 10:42:59;;;;;;;;;4.67;4.33;;;;;54.93;7.42;101817.41;5075267;28;45442;-72
2022/08/10 10:45:35;;;;;;;;;4.33;4.33;;;;;54.86;7.60;101814.28;5057930;28;45518;-72
2022/08/10 10:48:31;;;;;;;;;6.00;6.00;;;;;54.61;7.03;101813.19;5058029;28;45379;-72
2022/08/10 10:51:37;;;;;;;;;7.67;5.00;;;;;54.37;7.72;101808.88;5057469;28;45359;-72
2022/08/10 10:54:18;;;;;;;;;4.00;4.00;;;;;54.22;7.96;101812.28;5048409;28;45623;-72
2022/08/10 10:57:00;;;;;;;;;6.33;5.33;;;;;53.94;7.67;101806.91;5057708;28;45339;-70
2022/08/10 10:59:56;;;;;;;;;4.33;4.33;;;;;53.43;7.59;101802.88;5039712;28;45463;-70
2022/08/10 11:02:49;;;;;;;;;5.67;5.67;;;;;52.96;7.89;101771.22;5057292;28;46881;-70
2022/08/10 11:05:20;;;;;;;;;4.00;4.00;;;;;52.73;8.27;101765.59;5039144;28;45500;-70
2022/08/10 11:07:55;;;;;;;;;5.33;5.33;;;;;52.53;7.61;101767.00;5057131;28;45509;-70
2022/08/10 11:10:29;;;;;;;;;4.00;4.00;;;;;52.30;8.03;101760.50;5039763;28;45434;-70
2022/08/10 11:13:11;;;;;;;;;5.67;5.67;;;;;51.92;8.04;101765.78;5057260;28;47350;-70
2022/08/10 11:15:47;;;;;;;;;6.00;6.00;;;;;51.62;8.14;101747.44;5057076;28;45466;-70
2022/08/10 11:18:26;;;;;;;;;7.00;7.00;;;;;51.09;8.31;101746.06;5057389;28;45461;-70
2022/08/10 11:21:19;;;;;;;;;4.00;4.00;;;;;50.66;8.70;101744.38;5057585;28;45400;-83
2022/08/10 11:23:59;;;;;;;;;5.67;5.67;;;;;50.34;8.98;101741.56;5057223;28;45454;-83
2022/08/10 11:26:26;;;;;;;;;5.00;5.00;;;;;49.94;8.97;101735.47;5057247;28;45489;-83
2022/08/10 11:29:06;;;;;;;;;6.00;6.00;;;;;49.41;9.31;101737.44;5074691;28;45396;-83
2022/08/10 11:31:42;;;;;;;;;4.00;4.00;;;;;48.85;9.60;101723.97;5077804;28;45519;-83
2022/08/10 11:34:16;;;;;;;;;4.33;4.33;;;;;48.37;10.17;101730.44;5077095;28;45370;-83
2022/08/10 11:36:48;;;;;;;;;6.00;6.00;;;;;47.97;9.65;101724.00;5077031;28;45429;-83
2022/08/10 11:39:30;;;;;;;;;5.33;5.33;;;;;47.39;10.71;101708.84;5077226;28;45398;-83
2022/08/10 11:42:09;;;;;;;;;5.33;5.33;;;;;46.97;10.43;101727.97;5077534;28;45424;-85
2022/08/10 11:44:56;;;;;;;;;3.33;3.33;;;;;46.41;10.48;101720.53;5036753;28;46172;-83
2022/08/10 11:47:31;;;;;;;;;5.00;5.00;;;;;46.01;10.92;101716.59;5036546;28;45411;-84
2022/08/10 11:49:58;;;;;;;;;4.00;4.00;;;;;45.78;11.29;101708.66;5036452;28;45530;-83
2022/08/10 11:52:38;;;;;;;;;7.67;7.00;;;;;45.45;11.48;101708.88;5036987;28;45421;-85